sensor_id;sensor_type;location;lat;lon;timestamp;temperature;humidity
15615;DHT22;7907;51.368;6.730;2022-10-24T00:01:44;15.70;99.90
15615;DHT22;7907;51.368;6.730;2022-10-24T00:04:11;15.70;99.90
15615;DHT22;7907;51.368;6.730;2022-10-24T00:06:40;15.80;99.90
15615;DHT22;7907;51.368;6.730;2022-10-24T00:09:07;15.80;99.90
15615;DHT22;7907;51.368;6.730;2022-10-24T00:11:36;15.80;99.90
15615;DHT22;7907;51.368;6.730;2022-10-24T00:14:04;15.80;99.90
15615;DHT22;7907;51.368;6.730;2022-10-24T00:16:31;15.80;99.90
15615;DHT22;7907;51.368;6.730;2022-10-24T00:19:02;15.80;99.90
15615;DHT22;7907;51.368;6.730;2022-10-24T00:21:29;15.80;99.90
15615;DHT22;7907;51.368;6.730;2022-10-24T00:23:57;15.80;99.90
15615;DHT22;7907;51.368;6.730;2022-10-24T00:26:24;15.80;99.90
15615;DHT22;7907;51.368;6.730;2022-10-24T00:28:51;15.80;99.90
15615;DHT22;7907;51.368;6.730;2022-10-24T00:31:19;15.80;99.90
15615;DHT22;7907;51.368;6.730;2022-10-24T00:33:47;15.80;99.90
15615;DHT22;7907;51.368;6.730;2022-10-24T00:36:20;15.90;99.90
15615;DHT22;7907;51.368;6.730;2022-10-24T00:38:48;15.80;99.90
15615;DHT22;7907;51.368;6.730;2022-10-24T00:41:18;15.80;99.90
15615;DHT22;7907;51.368;6.730;2022-10-24T00:43:45;15.80;99.90
15615;DHT22;7907;51.368;6.730;2022-10-24T00:46:14;15.80;99.90
15615;DHT22;7907;51.368;6.730;2022-10-24T00:48:45;15.80;99.90
15615;DHT22;7907;51.368;6.730;2022-10-24T00:51:18;15.70;99.90
15615;DHT22;7907;51.368;6.730;2022-10-24T00:53:51;15.80;99.90
15615;DHT22;7907;51.368;6.730;2022-10-24T00:56:34;15.70;99.90
15615;DHT22;7907;51.368;6.730;2022-10-24T00:59:04;15.70;99.90
15615;DHT22;7907;51.368;6.730;2022-10-24T01:01:33;15.70;99.90
15615;DHT22;7907;51.368;6.730;2022-10-24T01:04:00;15.70;99.90
15615;DHT22;7907;51.368;6.730;2022-10-24T01:06:45;15.70;99.90
15615;DHT22;7907;51.368;6.730;2022-10-24T01:09:26;15.80;99.90
15615;DHT22;7907;51.368;6.730;2022-10-24T01:12:07;15.70;99.90
15615;DHT22;7907;51.368;6.730;2022-10-24T01:14:44;15.80;99.90
15615;DHT22;7907;51.368;6.730;2022-10-24T01:17:18;15.80;99.90
15615;DHT22;7907;51.368;6.730;2022-10-24T01:20:11;15.80;99.90
15615;DHT22;7907;51.368;6.730;2022-10-24T01:23:03;15.90;99.90
15615;DHT22;7907;51.368;6.730;2022-10-24T01:25:41;15.80;99.90
15615;DHT22;7907;51.368;6.730;2022-10-24T01:28:13;15.90;99.90
15615;DHT22;7907;51.368;6.730;2022-10-24T01:30:46;15.90;99.90
15615;DHT22;7907;51.368;6.730;2022-10-24T01:33:19;15.90;99.90
15615;DHT22;7907;51.368;6.730;2022-10-24T01:35:54;15.90;99.90
15615;DHT22;7907;51.368;6.730;2022-10-24T01:38:25;15.90;99.90
15615;DHT22;7907;51.368;6.730;2022-10-24T01:40:56;15.90;99.90
15615;DHT22;7907;51.368;6.730;2022-10-24T01:43:26;16.00;99.90
15615;DHT22;7907;51.368;6.730;2022-10-24T01:46:00;16.00;99.90
15615;DHT22;7907;51.368;6.730;2022-10-24T01:48:33;16.00;99.90
15615;DHT22;7907;51.368;6.730;2022-10-24T01:51:04;16.00;99.90
15615;DHT22;7907;51.368;6.730;2022-10-24T01:53:33;16.00;99.90
15615;DHT22;7907;51.368;6.730;2022-10-24T01:56:01;16.00;99.90
15615;DHT22;7907;51.368;6.730;2022-10-24T01:58:29;16.00;99.90
15615;DHT22;7907;51.368;6.730;2022-10-24T02:01:02;16.00;99.90
15615;DHT22;7907;51.368;6.730;2022-10-24T02:03:33;15.90;99.90
15615;DHT22;7907;51.368;6.730;2022-10-24T02:06:04;15.90;99.90
15615;DHT22;7907;51.368;6.730;2022-10-24T02:08:38;15.90;99.90
15615;DHT22;7907;51.368;6.730;2022-10-24T02:11:13;15.80;99.90
15615;DHT22;7907;51.368;6.730;2022-10-24T02:13:44;15.80;99.90
15615;DHT22;7907;51.368;6.730;2022-10-24T02:16:19;15.80;99.90
15615;DHT22;7907;51.368;6.730;2022-10-24T02:18:49;15.80;99.90
15615;DHT22;7907;51.368;6.730;2022-10-24T02:21:23;15.70;99.90
15615;DHT22;7907;51.368;6.730;2022-10-24T02:23:56;15.70;99.90
15615;DHT22;7907;51.368;6.730;2022-10-24T02:26:32;15.70;99.90
15615;DHT22;7907;51.368;6.730;2022-10-24T02:29:05;15.70;99.90
15615;DHT22;7907;51.368;6.730;2022-10-24T02:31:42;15.70;99.90
15615;DHT22;7907;51.368;6.730;2022-10-24T02:34:12;15.60;99.90
15615;DHT22;7907;51.368;6.730;2022-10-24T02:36:42;15.60;99.90
15615;DHT22;7907;51.368;6.730;2022-10-24T02:39:12;15.60;99.90
15615;DHT22;7907;51.368;6.730;2022-10-24T02:41:42;15.60;99.90
15615;DHT22;7907;51.368;6.730;2022-10-24T02:44:12;15.60;99.90
15615;DHT22;7907;51.368;6.730;2022-10-24T02:46:44;15.60;99.90
15615;DHT22;7907;51.368;6.730;2022-10-24T02:49:13;15.60;99.90
15615;DHT22;7907;51.368;6.730;2022-10-24T02:51:43;15.60;99.90
15615;DHT22;7907;51.368;6.730;2022-10-24T02:54:11;15.60;99.90
15615;DHT22;7907;51.368;6.730;2022-10-24T02:56:42;15.60;99.90
15615;DHT22;7907;51.368;6.730;2022-10-24T02:59:11;15.60;99.90
15615;DHT22;7907;51.368;6.730;2022-10-24T03:01:38;15.60;99.90
15615;DHT22;7907;51.368;6.730;2022-10-24T03:04:08;15.60;99.90
15615;DHT22;7907;51.368;6.730;2022-10-24T03:06:38;15.60;99.90
15615;DHT22;7907;51.368;6.730;2022-10-24T03:09:05;15.60;99.90
15615;DHT22;7907;51.368;6.730;2022-10-24T03:11:33;15.70;99.90
15615;DHT22;7907;51.368;6.730;2022-10-24T03:14:00;15.70;99.90
15615;DHT22;7907;51.368;6.730;2022-10-24T03:16:28;15.70;99.90
15615;DHT22;7907;51.368;6.730;2022-10-24T03:18:56;15.70;99.90
15615;DHT22;7907;51.368;6.730;2022-10-24T03:21:25;15.70;99.90
15615;DHT22;7907;51.368;6.730;2022-10-24T03:23:53;15.70;99.90
15615;DHT22;7907;51.368;6.730;2022-10-24T03:26:20;15.80;99.90
15615;DHT22;7907;51.368;6.730;2022-10-24T03:28:47;15.70;99.90
15615;DHT22;7907;51.368;6.730;2022-10-24T03:31:14;15.80;99.90
15615;DHT22;7907;51.368;6.730;2022-10-24T03:33:42;15.80;99.90
15615;DHT22;7907;51.368;6.730;2022-10-24T03:36:09;15.80;99.90
15615;DHT22;7907;51.368;6.730;2022-10-24T03:38:38;15.80;99.90
15615;DHT22;7907;51.368;6.730;2022-10-24T03:41:05;15.80;99.90
15615;DHT22;7907;51.368;6.730;2022-10-24T03:43:33;15.80;99.90
15615;DHT22;7907;51.368;6.730;2022-10-24T03:46:00;15.80;99.90
15615;DHT22;7907;51.368;6.730;2022-10-24T03:48:28;15.80;99.90
15615;DHT22;7907;51.368;6.730;2022-10-24T03:50:55;15.80;99.90
15615;DHT22;7907;51.368;6.730;2022-10-24T03:53:23;15.80;99.90
15615;DHT22;7907;51.368;6.730;2022-10-24T03:55:54;15.80;99.90
15615;DHT22;7907;51.368;6.730;2022-10-24T03:58:22;15.80;99.90
15615;DHT22;7907;51.368;6.730;2022-10-24T04:00:49;15.80;99.90
15615;DHT22;7907;51.368;6.730;2022-10-24T04:03:17;15.80;99.90
15615;DHT22;7907;51.368;6.730;2022-10-24T04:05:44;15.80;99.90
15615;DHT22;7907;51.368;6.730;2022-10-24T04:08:12;15.80;99.90
15615;DHT22;7907;51.368;6.730;2022-10-24T04:10:39;15.80;99.90
15615;DHT22;7907;51.368;6.730;2022-10-24T04:13:09;15.80;99.90
15615;DHT22;7907;51.368;6.730;2022-10-24T04:15:36;15.80;99.90
15615;DHT22;7907;51.368;6.730;2022-10-24T04:18:03;15.80;99.90
15615;DHT22;7907;51.368;6.730;2022-10-24T04:20:33;15.80;99.90
15615;DHT22;7907;51.368;6.730;2022-10-24T04:23:01;15.80;99.90
15615;DHT22;7907;51.368;6.730;2022-10-24T04:25:28;15.70;99.90
15615;DHT22;7907;51.368;6.730;2022-10-24T04:27:57;15.70;99.90
15615;DHT22;7907;51.368;6.730;2022-10-24T04:30:26;15.80;99.90
15615;DHT22;7907;51.368;6.730;2022-10-24T04:32:56;15.70;99.90
15615;DHT22;7907;51.368;6.730;2022-10-24T04:35:24;15.70;99.90
15615;DHT22;7907;51.368;6.730;2022-10-24T04:37:51;15.70;99.90
15615;DHT22;7907;51.368;6.730;2022-10-24T04:40:18;15.70;99.90
15615;DHT22;7907;51.368;6.730;2022-10-24T04:42:46;15.70;99.90
15615;DHT22;7907;51.368;6.730;2022-10-24T04:45:13;15.70;99.90
15615;DHT22;7907;51.368;6.730;2022-10-24T04:47:42;15.70;99.90
15615;DHT22;7907;51.368;6.730;2022-10-24T04:50:10;15.70;99.90
15615;DHT22;7907;51.368;6.730;2022-10-24T04:52:38;15.70;99.90
15615;DHT22;7907;51.368;6.730;2022-10-24T04:55:05;15.70;99.90
15615;DHT22;7907;51.368;6.730;2022-10-24T04:57:33;15.70;99.90
15615;DHT22;7907;51.368;6.730;2022-10-24T05:00:00;15.70;99.90
15615;DHT22;7907;51.368;6.730;2022-10-24T05:02:27;15.70;99.90
15615;DHT22;7907;51.368;6.730;2022-10-24T05:04:57;15.80;99.90
15615;DHT22;7907;51.368;6.730;2022-10-24T05:07:25;15.80;99.90
15615;DHT22;7907;51.368;6.730;2022-10-24T05:09:53;15.80;99.90
15615;DHT22;7907;51.368;6.730;2022-10-24T05:12:20;15.80;99.90
15615;DHT22;7907;51.368;6.730;2022-10-24T05:14:50;15.80;99.90
15615;DHT22;7907;51.368;6.730;2022-10-24T05:17:18;15.90;99.90
15615;DHT22;7907;51.368;6.730;2022-10-24T05:19:45;15.90;99.90
15615;DHT22;7907;51.368;6.730;2022-10-24T05:22:15;15.90;99.90
15615;DHT22;7907;51.368;6.730;2022-10-24T05:24:42;15.90;99.90
15615;DHT22;7907;51.368;6.730;2022-10-24T05:27:10;15.90;99.90
15615;DHT22;7907;51.368;6.730;2022-10-24T05:29:38;15.90;99.90
15615;DHT22;7907;51.368;6.730;2022-10-24T05:32:05;15.90;99.90
15615;DHT22;7907;51.368;6.730;2022-10-24T05:34:32;15.90;99.90
15615;DHT22;7907;51.368;6.730;2022-10-24T05:37:00;15.80;99.90
15615;DHT22;7907;51.368;6.730;2022-10-24T05:39:29;15.80;99.90
15615;DHT22;7907;51.368;6.730;2022-10-24T05:42:02;15.80;99.90
15615;DHT22;7907;51.368;6.730;2022-10-24T05:44:29;15.80;99.90
15615;DHT22;7907;51.368;6.730;2022-10-24T05:46:57;15.80;99.90
15615;DHT22;7907;51.368;6.730;2022-10-24T05:49:24;15.80;99.90
15615;DHT22;7907;51.368;6.730;2022-10-24T05:51:52;15.70;99.90
15615;DHT22;7907;51.368;6.730;2022-10-24T05:54:20;15.70;99.90
15615;DHT22;7907;51.368;6.730;2022-10-24T05:56:50;15.70;99.90
15615;DHT22;7907;51.368;6.730;2022-10-24T05:59:21;15.70;99.90
15615;DHT22;7907;51.368;6.730;2022-10-24T06:01:48;15.70;99.90
15615;DHT22;7907;51.368;6.730;2022-10-24T06:04:17;15.60;99.90
15615;DHT22;7907;51.368;6.730;2022-10-24T06:06:44;15.60;99.90
15615;DHT22;7907;51.368;6.730;2022-10-24T06:09:12;15.60;99.90
15615;DHT22;7907;51.368;6.730;2022-10-24T06:11:40;15.60;99.90
15615;DHT22;7907;51.368;6.730;2022-10-24T06:14:12;15.60;99.90
15615;DHT22;7907;51.368;6.730;2022-10-24T06:16:41;15.50;99.90
15615;DHT22;7907;51.368;6.730;2022-10-24T06:19:08;15.50;99.90
15615;DHT22;7907;51.368;6.730;2022-10-24T06:21:36;15.60;99.90
15615;DHT22;7907;51.368;6.730;2022-10-24T06:24:04;15.60;99.90
15615;DHT22;7907;51.368;6.730;2022-10-24T06:26:31;15.60;99.90
15615;DHT22;7907;51.368;6.730;2022-10-24T06:28:59;15.60;99.90
15615;DHT22;7907;51.368;6.730;2022-10-24T06:31:28;15.60;99.90
15615;DHT22;7907;51.368;6.730;2022-10-24T06:33:55;15.60;99.90
15615;DHT22;7907;51.368;6.730;2022-10-24T06:36:23;15.60;99.90
15615;DHT22;7907;51.368;6.730;2022-10-24T06:38:50;15.60;99.90
15615;DHT22;7907;51.368;6.730;2022-10-24T06:41:18;15.60;99.90
15615;DHT22;7907;51.368;6.730;2022-10-24T06:43:45;15.60;99.90
15615;DHT22;7907;51.368;6.730;2022-10-24T06:46:15;15.60;99.90
15615;DHT22;7907;51.368;6.730;2022-10-24T06:48:45;15.60;99.90
15615;DHT22;7907;51.368;6.730;2022-10-24T06:51:13;15.70;99.90
15615;DHT22;7907;51.368;6.730;2022-10-24T06:53:41;15.70;99.90
15615;DHT22;7907;51.368;6.730;2022-10-24T06:56:08;15.60;99.90
15615;DHT22;7907;51.368;6.730;2022-10-24T06:58:37;15.70;99.90
15615;DHT22;7907;51.368;6.730;2022-10-24T07:01:08;15.70;99.90
15615;DHT22;7907;51.368;6.730;2022-10-24T07:03:38;15.80;99.90
15615;DHT22;7907;51.368;6.730;2022-10-24T07:06:13;15.90;99.90
15615;DHT22;7907;51.368;6.730;2022-10-24T07:08:41;16.00;99.90
15615;DHT22;7907;51.368;6.730;2022-10-24T07:11:08;16.00;99.90
15615;DHT22;7907;51.368;6.730;2022-10-24T07:13:36;16.10;99.90
15615;DHT22;7907;51.368;6.730;2022-10-24T07:16:04;16.10;99.90
15615;DHT22;7907;51.368;6.730;2022-10-24T07:18:31;16.20;99.90
15615;DHT22;7907;51.368;6.730;2022-10-24T07:21:03;16.20;99.90
15615;DHT22;7907;51.368;6.730;2022-10-24T07:23:32;16.20;99.90
15615;DHT22;7907;51.368;6.730;2022-10-24T07:26:01;16.20;99.90
15615;DHT22;7907;51.368;6.730;2022-10-24T07:28:28;16.30;99.90
15615;DHT22;7907;51.368;6.730;2022-10-24T07:30:56;16.30;99.90
15615;DHT22;7907;51.368;6.730;2022-10-24T07:33:24;16.30;99.90
15615;DHT22;7907;51.368;6.730;2022-10-24T07:35:52;16.30;99.90
15615;DHT22;7907;51.368;6.730;2022-10-24T07:38:20;16.30;99.90
15615;DHT22;7907;51.368;6.730;2022-10-24T07:40:50;16.30;99.90
15615;DHT22;7907;51.368;6.730;2022-10-24T07:43:18;16.30;99.90
15615;DHT22;7907;51.368;6.730;2022-10-24T07:45:45;16.40;99.90
15615;DHT22;7907;51.368;6.730;2022-10-24T07:48:13;16.40;99.90
15615;DHT22;7907;51.368;6.730;2022-10-24T07:50:43;16.50;99.90
15615;DHT22;7907;51.368;6.730;2022-10-24T07:53:11;16.60;99.90
15615;DHT22;7907;51.368;6.730;2022-10-24T07:55:40;16.60;99.90
15615;DHT22;7907;51.368;6.730;2022-10-24T07:58:10;16.70;99.90
15615;DHT22;7907;51.368;6.730;2022-10-24T08:00:37;16.70;99.90
15615;DHT22;7907;51.368;6.730;2022-10-24T08:03:04;16.70;99.90
15615;DHT22;7907;51.368;6.730;2022-10-24T08:05:31;16.80;99.90
15615;DHT22;7907;51.368;6.730;2022-10-24T08:07:58;16.90;99.90
15615;DHT22;7907;51.368;6.730;2022-10-24T08:10:26;16.90;99.90
15615;DHT22;7907;51.368;6.730;2022-10-24T08:12:54;16.90;99.90
15615;DHT22;7907;51.368;6.730;2022-10-24T08:15:24;17.00;99.90
15615;DHT22;7907;51.368;6.730;2022-10-24T08:17:52;17.00;99.90
15615;DHT22;7907;51.368;6.730;2022-10-24T08:20:20;17.00;99.90
15615;DHT22;7907;51.368;6.730;2022-10-24T08:22:48;17.00;99.90
15615;DHT22;7907;51.368;6.730;2022-10-24T08:25:18;17.10;99.90
15615;DHT22;7907;51.368;6.730;2022-10-24T08:27:45;17.10;99.90
15615;DHT22;7907;51.368;6.730;2022-10-24T08:30:13;17.20;99.90
15615;DHT22;7907;51.368;6.730;2022-10-24T08:32:45;17.20;99.90
15615;DHT22;7907;51.368;6.730;2022-10-24T08:35:15;17.30;99.90
15615;DHT22;7907;51.368;6.730;2022-10-24T08:37:44;17.30;99.90
15615;DHT22;7907;51.368;6.730;2022-10-24T08:40:15;17.30;99.90
15615;DHT22;7907;51.368;6.730;2022-10-24T08:42:44;17.30;99.90
15615;DHT22;7907;51.368;6.730;2022-10-24T08:45:21;17.40;99.90
15615;DHT22;7907;51.368;6.730;2022-10-24T08:48:00;17.40;99.90
15615;DHT22;7907;51.368;6.730;2022-10-24T08:50:32;17.50;99.90
15615;DHT22;7907;51.368;6.730;2022-10-24T08:53:04;17.50;99.90
15615;DHT22;7907;51.368;6.730;2022-10-24T08:55:37;17.60;99.90
15615;DHT22;7907;51.368;6.730;2022-10-24T08:58:06;17.60;99.90
15615;DHT22;7907;51.368;6.730;2022-10-24T09:00:39;17.70;99.90
15615;DHT22;7907;51.368;6.730;2022-10-24T09:03:16;17.70;99.90
15615;DHT22;7907;51.368;6.730;2022-10-24T09:05:47;17.70;99.90
15615;DHT22;7907;51.368;6.730;2022-10-24T09:08:23;17.70;99.90
15615;DHT22;7907;51.368;6.730;2022-10-24T09:10:57;17.70;99.90
15615;DHT22;7907;51.368;6.730;2022-10-24T09:13:26;17.80;99.90
15615;DHT22;7907;51.368;6.730;2022-10-24T09:15:54;17.80;99.90
15615;DHT22;7907;51.368;6.730;2022-10-24T09:18:27;17.80;99.90
15615;DHT22;7907;51.368;6.730;2022-10-24T09:20:58;17.80;99.90
15615;DHT22;7907;51.368;6.730;2022-10-24T09:23:26;17.90;99.90
15615;DHT22;7907;51.368;6.730;2022-10-24T09:25:55;17.80;99.90
15615;DHT22;7907;51.368;6.730;2022-10-24T09:28:23;17.80;99.90
15615;DHT22;7907;51.368;6.730;2022-10-24T09:30:51;17.80;99.90
15615;DHT22;7907;51.368;6.730;2022-10-24T09:33:26;17.80;99.90
15615;DHT22;7907;51.368;6.730;2022-10-24T09:35:56;17.80;99.90
15615;DHT22;7907;51.368;6.730;2022-10-24T09:38:30;17.90;99.90
15615;DHT22;7907;51.368;6.730;2022-10-24T09:41:00;18.00;99.90
15615;DHT22;7907;51.368;6.730;2022-10-24T09:43:33;18.00;99.90
15615;DHT22;7907;51.368;6.730;2022-10-24T09:46:04;18.10;99.90
15615;DHT22;7907;51.368;6.730;2022-10-24T09:51:27;18.10;99.90
15615;DHT22;7907;51.368;6.730;2022-10-24T09:54:23;18.20;99.90
15615;DHT22;7907;51.368;6.730;2022-10-24T09:56:55;18.10;99.90
15615;DHT22;7907;51.368;6.730;2022-10-24T09:59:34;18.10;99.90
15615;DHT22;7907;51.368;6.730;2022-10-24T10:02:23;18.20;99.90
15615;DHT22;7907;51.368;6.730;2022-10-24T10:05:19;18.10;99.90
15615;DHT22;7907;51.368;6.730;2022-10-24T10:07:48;18.20;99.90
15615;DHT22;7907;51.368;6.730;2022-10-24T10:10:25;18.20;99.90
15615;DHT22;7907;51.368;6.730;2022-10-24T10:12:59;18.30;99.90
15615;DHT22;7907;51.368;6.730;2022-10-24T10:15:30;18.30;99.90
15615;DHT22;7907;51.368;6.730;2022-10-24T10:18:02;18.30;99.90
15615;DHT22;7907;51.368;6.730;2022-10-24T10:20:36;18.30;99.90
15615;DHT22;7907;51.368;6.730;2022-10-24T10:23:23;18.40;99.90
15615;DHT22;7907;51.368;6.730;2022-10-24T10:26:02;18.50;99.90
15615;DHT22;7907;51.368;6.730;2022-10-24T10:28:33;18.50;99.90
15615;DHT22;7907;51.368;6.730;2022-10-24T10:31:02;18.50;99.90
15615;DHT22;7907;51.368;6.730;2022-10-24T10:33:34;18.50;99.90
15615;DHT22;7907;51.368;6.730;2022-10-24T10:36:10;18.50;99.90
15615;DHT22;7907;51.368;6.730;2022-10-24T10:39:00;18.40;99.90
15615;DHT22;7907;51.368;6.730;2022-10-24T10:41:42;18.40;99.90
15615;DHT22;7907;51.368;6.730;2022-10-24T10:44:32;18.50;99.90
15615;DHT22;7907;51.368;6.730;2022-10-24T10:47:10;18.40;99.90
15615;DHT22;7907;51.368;6.730;2022-10-24T10:49:40;18.40;99.90
15615;DHT22;7907;51.368;6.730;2022-10-24T10:52:12;18.30;99.90
15615;DHT22;7907;51.368;6.730;2022-10-24T10:55:01;18.30;99.90
15615;DHT22;7907;51.368;6.730;2022-10-24T10:57:38;18.40;99.90
15615;DHT22;7907;51.368;6.730;2022-10-24T11:00:11;18.50;99.90
15615;DHT22;7907;51.368;6.730;2022-10-24T11:02:49;18.50;99.90
15615;DHT22;7907;51.368;6.730;2022-10-24T11:05:29;18.60;99.90
15615;DHT22;7907;51.368;6.730;2022-10-24T11:08:09;18.70;99.90
15615;DHT22;7907;51.368;6.730;2022-10-24T11:10:44;18.70;99.90
15615;DHT22;7907;51.368;6.730;2022-10-24T11:13:18;18.70;99.90
15615;DHT22;7907;51.368;6.730;2022-10-24T11:15:49;18.70;99.90
15615;DHT22;7907;51.368;6.730;2022-10-24T11:18:21;18.80;99.90
15615;DHT22;7907;51.368;6.730;2022-10-24T11:20:54;18.80;99.90
15615;DHT22;7907;51.368;6.730;2022-10-24T11:23:29;18.80;99.90
15615;DHT22;7907;51.368;6.730;2022-10-24T11:26:01;18.80;99.90
15615;DHT22;7907;51.368;6.730;2022-10-24T11:28:31;18.80;99.90
15615;DHT22;7907;51.368;6.730;2022-10-24T11:31:07;18.70;99.90
15615;DHT22;7907;51.368;6.730;2022-10-24T11:33:43;18.70;99.90
15615;DHT22;7907;51.368;6.730;2022-10-24T11:36:15;18.70;99.90
15615;DHT22;7907;51.368;6.730;2022-10-24T11:38:50;18.60;99.90
15615;DHT22;7907;51.368;6.730;2022-10-24T11:41:37;18.60;99.90
15615;DHT22;7907;51.368;6.730;2022-10-24T11:44:17;18.60;99.90
15615;DHT22;7907;51.368;6.730;2022-10-24T11:46:52;18.50;99.90
15615;DHT22;7907;51.368;6.730;2022-10-24T11:49:28;18.50;99.90
15615;DHT22;7907;51.368;6.730;2022-10-24T11:52:03;18.40;99.90
15615;DHT22;7907;51.368;6.730;2022-10-24T11:54:41;18.40;99.90
15615;DHT22;7907;51.368;6.730;2022-10-24T11:57:14;18.40;99.90
15615;DHT22;7907;51.368;6.730;2022-10-24T11:59:43;18.40;99.90
15615;DHT22;7907;51.368;6.730;2022-10-24T12:02:35;18.40;99.90
15615;DHT22;7907;51.368;6.730;2022-10-24T12:05:25;18.40;99.90
15615;DHT22;7907;51.368;6.730;2022-10-24T12:08:20;18.40;99.90
15615;DHT22;7907;51.368;6.730;2022-10-24T12:11:19;18.30;99.90
15615;DHT22;7907;51.368;6.730;2022-10-24T12:14:20;18.30;99.90
15615;DHT22;7907;51.368;6.730;2022-10-24T12:17:12;18.30;99.90
15615;DHT22;7907;51.368;6.730;2022-10-24T12:19:43;18.30;99.90
15615;DHT22;7907;51.368;6.730;2022-10-24T12:22:16;18.30;99.90
15615;DHT22;7907;51.368;6.730;2022-10-24T12:24:46;18.30;99.90
15615;DHT22;7907;51.368;6.730;2022-10-24T12:27:27;18.30;99.90
15615;DHT22;7907;51.368;6.730;2022-10-24T12:30:03;18.30;99.90
15615;DHT22;7907;51.368;6.730;2022-10-24T12:32:38;18.20;99.90
15615;DHT22;7907;51.368;6.730;2022-10-24T12:35:44;18.10;99.90
15615;DHT22;7907;51.368;6.730;2022-10-24T12:38:20;18.00;99.90
15615;DHT22;7907;51.368;6.730;2022-10-24T12:41:36;18.00;99.90
15615;DHT22;7907;51.368;6.730;2022-10-24T12:44:39;18.00;99.90
15615;DHT22;7907;51.368;6.730;2022-10-24T12:47:32;18.00;99.90
15615;DHT22;7907;51.368;6.730;2022-10-24T12:53:14;18.00;99.90
15615;DHT22;7907;51.368;6.730;2022-10-24T12:56:19;18.00;99.90
15615;DHT22;7907;51.368;6.730;2022-10-24T12:59:15;17.90;99.90
15615;DHT22;7907;51.368;6.730;2022-10-24T13:01:45;17.50;99.90
15615;DHT22;7907;51.368;6.730;2022-10-24T13:04:43;17.40;99.90
15615;DHT22;7907;51.368;6.730;2022-10-24T13:10:29;17.50;99.90
15615;DHT22;7907;51.368;6.730;2022-10-24T13:15:55;17.60;99.90
15615;DHT22;7907;51.368;6.730;2022-10-24T13:21:28;18.00;99.90
15615;DHT22;7907;51.368;6.730;2022-10-24T13:24:10;18.50;99.90
15615;DHT22;7907;51.368;6.730;2022-10-24T13:26:41;19.20;99.90
15615;DHT22;7907;51.368;6.730;2022-10-24T13:29:14;19.60;99.90
15615;DHT22;7907;51.368;6.730;2022-10-24T13:31:49;19.60;99.90
15615;DHT22;7907;51.368;6.730;2022-10-24T13:34:26;19.50;99.90
15615;DHT22;7907;51.368;6.730;2022-10-24T13:37:02;19.40;99.90
15615;DHT22;7907;51.368;6.730;2022-10-24T13:39:34;19.20;99.90
15615;DHT22;7907;51.368;6.730;2022-10-24T13:42:05;19.30;99.90
15615;DHT22;7907;51.368;6.730;2022-10-24T13:44:41;19.30;99.90
15615;DHT22;7907;51.368;6.730;2022-10-24T13:47:17;19.40;99.90
15615;DHT22;7907;51.368;6.730;2022-10-24T13:49:53;20.10;99.90
15615;DHT22;7907;51.368;6.730;2022-10-24T13:52:30;20.40;99.90
15615;DHT22;7907;51.368;6.730;2022-10-24T13:55:11;20.30;99.90
15615;DHT22;7907;51.368;6.730;2022-10-24T13:57:50;20.40;99.90
15615;DHT22;7907;51.368;6.730;2022-10-24T14:00:20;20.80;99.90
15615;DHT22;7907;51.368;6.730;2022-10-24T14:02:50;20.90;99.90
15615;DHT22;7907;51.368;6.730;2022-10-24T14:05:26;20.60;99.90
15615;DHT22;7907;51.368;6.730;2022-10-24T14:07:59;20.40;99.90
15615;DHT22;7907;51.368;6.730;2022-10-24T14:10:27;20.30;99.90
15615;DHT22;7907;51.368;6.730;2022-10-24T14:12:57;20.00;99.90
15615;DHT22;7907;51.368;6.730;2022-10-24T14:15:27;20.50;99.90
15615;DHT22;7907;51.368;6.730;2022-10-24T14:17:58;20.80;99.90
15615;DHT22;7907;51.368;6.730;2022-10-24T14:20:29;20.70;99.90
15615;DHT22;7907;51.368;6.730;2022-10-24T14:23:00;20.50;99.90
15615;DHT22;7907;51.368;6.730;2022-10-24T14:25:31;20.40;99.90
15615;DHT22;7907;51.368;6.730;2022-10-24T14:28:01;20.10;99.90
15615;DHT22;7907;51.368;6.730;2022-10-24T14:30:30;20.00;99.90
15615;DHT22;7907;51.368;6.730;2022-10-24T14:33:19;19.80;99.90
15615;DHT22;7907;51.368;6.730;2022-10-24T14:35:47;19.70;99.90
15615;DHT22;7907;51.368;6.730;2022-10-24T14:38:17;19.60;99.90
15615;DHT22;7907;51.368;6.730;2022-10-24T14:40:46;19.60;99.90
15615;DHT22;7907;51.368;6.730;2022-10-24T14:43:16;19.40;99.90
15615;DHT22;7907;51.368;6.730;2022-10-24T14:46:07;19.40;99.90
15615;DHT22;7907;51.368;6.730;2022-10-24T14:48:34;19.30;99.90
15615;DHT22;7907;51.368;6.730;2022-10-24T14:51:04;19.10;99.90
15615;DHT22;7907;51.368;6.730;2022-10-24T14:53:39;19.10;99.90
15615;DHT22;7907;51.368;6.730;2022-10-24T14:56:18;19.00;99.90
15615;DHT22;7907;51.368;6.730;2022-10-24T14:58:50;18.90;99.90
15615;DHT22;7907;51.368;6.730;2022-10-24T15:01:18;18.60;99.90
15615;DHT22;7907;51.368;6.730;2022-10-24T15:03:50;18.30;99.90
15615;DHT22;7907;51.368;6.730;2022-10-24T15:06:22;17.90;99.90
15615;DHT22;7907;51.368;6.730;2022-10-24T15:09:04;17.50;99.90
15615;DHT22;7907;51.368;6.730;2022-10-24T15:11:36;17.20;99.90
15615;DHT22;7907;51.368;6.730;2022-10-24T15:14:04;17.00;99.90
15615;DHT22;7907;51.368;6.730;2022-10-24T15:16:33;16.90;99.90
15615;DHT22;7907;51.368;6.730;2022-10-24T15:19:04;16.80;99.90
15615;DHT22;7907;51.368;6.730;2022-10-24T15:21:35;16.60;99.90
15615;DHT22;7907;51.368;6.730;2022-10-24T15:24:06;16.40;99.90
15615;DHT22;7907;51.368;6.730;2022-10-24T15:26:34;16.40;99.90
15615;DHT22;7907;51.368;6.730;2022-10-24T15:29:07;16.40;99.90
15615;DHT22;7907;51.368;6.730;2022-10-24T15:31:38;16.50;99.90
15615;DHT22;7907;51.368;6.730;2022-10-24T15:34:06;16.50;99.90
15615;DHT22;7907;51.368;6.730;2022-10-24T15:36:39;16.60;99.90
15615;DHT22;7907;51.368;6.730;2022-10-24T15:39:12;16.60;99.90
15615;DHT22;7907;51.368;6.730;2022-10-24T15:41:40;16.60;99.90
15615;DHT22;7907;51.368;6.730;2022-10-24T15:44:14;16.60;99.90
15615;DHT22;7907;51.368;6.730;2022-10-24T15:46:42;16.60;99.90
15615;DHT22;7907;51.368;6.730;2022-10-24T15:49:11;16.60;99.90
15615;DHT22;7907;51.368;6.730;2022-10-24T15:51:42;16.60;99.90
15615;DHT22;7907;51.368;6.730;2022-10-24T15:54:12;16.60;99.90
15615;DHT22;7907;51.368;6.730;2022-10-24T15:56:41;16.60;99.90
15615;DHT22;7907;51.368;6.730;2022-10-24T15:59:08;16.60;99.90
15615;DHT22;7907;51.368;6.730;2022-10-24T16:01:43;16.50;99.90
15615;DHT22;7907;51.368;6.730;2022-10-24T16:04:12;16.50;99.90
15615;DHT22;7907;51.368;6.730;2022-10-24T16:06:39;16.50;99.90
15615;DHT22;7907;51.368;6.730;2022-10-24T16:09:19;16.40;99.90
15615;DHT22;7907;51.368;6.730;2022-10-24T16:11:48;16.40;99.90
15615;DHT22;7907;51.368;6.730;2022-10-24T16:14:16;16.30;99.90
15615;DHT22;7907;51.368;6.730;2022-10-24T16:16:44;16.30;99.90
15615;DHT22;7907;51.368;6.730;2022-10-24T16:19:12;16.20;99.90
15615;DHT22;7907;51.368;6.730;2022-10-24T16:21:40;16.20;99.90
15615;DHT22;7907;51.368;6.730;2022-10-24T16:24:08;16.20;99.90
15615;DHT22;7907;51.368;6.730;2022-10-24T16:26:48;16.10;99.90
15615;DHT22;7907;51.368;6.730;2022-10-24T16:29:26;16.00;99.90
15615;DHT22;7907;51.368;6.730;2022-10-24T16:31:55;16.00;99.90